createdAt,value
2023-02-08T00:01:28.310Z,25.55
2023-02-08T00:03:56.716Z,25.57
2023-02-08T00:06:25.177Z,25.56
2023-02-08T00:08:53.557Z,25.55
2023-02-08T00:11:22.071Z,25.56
2023-02-08T00:13:50.509Z,25.57
2023-02-08T00:16:19.425Z,25.57
2023-02-08T00:18:47.942Z,25.55
2023-02-08T00:21:18.300Z,25.55
2023-02-08T00:23:47.433Z,25.55
2023-02-08T00:26:16.286Z,25.55
2023-02-08T00:28:44.633Z,25.56
2023-02-08T00:31:13.106Z,25.57
2023-02-08T00:33:41.488Z,25.59
2023-02-08T00:36:10.553Z,25.62
2023-02-08T00:38:39.015Z,25.66
2023-02-08T00:41:07.489Z,25.68
2023-02-08T00:43:35.949Z,25.72
2023-02-08T00:46:05.015Z,25.75
2023-02-08T00:48:34.131Z,25.80
2023-02-08T00:51:12.850Z,25.85
2023-02-08T00:53:43.687Z,25.90
2023-02-08T00:56:13.379Z,25.93
2023-02-08T00:58:42.732Z,25.96
2023-02-08T01:01:12.029Z,25.99
2023-02-08T01:03:42.894Z,26.02
2023-02-08T01:06:14.903Z,26.04
2023-02-08T01:08:43.407Z,26.07
2023-02-08T01:11:15.510Z,26.09
2023-02-08T01:13:43.944Z,26.12
2023-02-08T01:16:24.848Z,26.15
2023-02-08T01:18:55.386Z,26.17
2023-02-08T01:21:27.369Z,26.19
2023-02-08T01:23:56.571Z,26.23
2023-02-08T01:26:26.844Z,26.26
2023-02-08T01:28:56.559Z,26.30
2023-02-08T01:31:30.458Z,26.34
2023-02-08T01:34:00.507Z,26.40
2023-02-08T01:36:30.847Z,26.47
2023-02-08T01:38:59.401Z,26.51
2023-02-08T01:41:31.287Z,26.60
2023-02-08T01:44:05.457Z,26.68
2023-02-08T01:46:39.229Z,26.73
2023-02-08T01:49:10.548Z,26.80
2023-02-08T01:51:44.040Z,26.86
2023-02-08T01:54:14.849Z,26.94
2023-02-08T01:56:46.740Z,26.99
2023-02-08T01:59:27.508Z,27.05
2023-02-08T02:01:59.278Z,27.08
2023-02-08T02:04:28.813Z,27.13
2023-02-08T02:07:01.067Z,27.16
2023-02-08T02:09:38.669Z,27.19
2023-02-08T02:12:09.902Z,27.23
2023-02-08T02:14:40.343Z,27.25
2023-02-08T02:17:08.940Z,27.29
2023-02-08T02:19:55.126Z,27.32
2023-02-08T02:23:00.448Z,27.34
2023-02-08T02:25:56.197Z,27.38
2023-02-08T02:29:01.382Z,27.44
2023-02-08T02:31:37.654Z,27.50
2023-02-08T02:34:20.584Z,27.58
2023-02-08T02:37:00.843Z,27.65
2023-02-08T02:40:07.402Z,27.73
2023-02-08T02:43:16.734Z,27.83
2023-02-08T02:45:55.895Z,27.93
2023-02-08T02:48:51.372Z,28.02
2023-02-08T02:51:34.344Z,28.12
2023-02-08T02:54:06.680Z,28.22
2023-02-08T02:56:44.927Z,28.30
2023-02-08T02:59:16.024Z,28.38
2023-02-08T03:01:47.356Z,28.47
2023-02-08T03:04:34.148Z,28.54
2023-02-08T03:07:21.180Z,28.64
2023-02-08T03:10:01.324Z,28.73
2023-02-08T03:12:29.588Z,28.80
2023-02-08T03:15:28.794Z,28.89
2023-02-08T03:18:24.353Z,28.98
2023-02-08T03:21:15.322Z,29.05
2023-02-08T03:23:53.804Z,29.10
2023-02-08T03:26:38.090Z,29.17
2023-02-08T03:29:12.856Z,29.23
2023-02-08T03:31:53.687Z,29.30
2023-02-08T03:34:36.926Z,29.36
2023-02-08T03:37:12.357Z,29.43
2023-02-08T03:39:43.320Z,29.51
2023-02-08T03:42:18.781Z,29.58
2023-02-08T03:45:01.981Z,29.64
2023-02-08T03:47:36.487Z,29.73
2023-02-08T03:50:10.692Z,29.79
2023-02-08T03:52:40.301Z,29.84
2023-02-08T03:55:18.937Z,29.92
2023-02-08T03:58:00.460Z,29.99
2023-02-08T04:00:32.278Z,30.05
2023-02-08T04:03:23.751Z,30.11
2023-02-08T04:05:52.254Z,30.19
2023-02-08T04:08:20.697Z,30.25
2023-02-08T04:10:49.299Z,30.33
2023-02-08T04:13:17.807Z,30.41
2023-02-08T04:15:46.286Z,30.47
2023-02-08T04:18:14.713Z,30.53
2023-02-08T04:20:43.071Z,30.56
2023-02-08T04:23:11.373Z,30.62
2023-02-08T04:25:40.982Z,30.68
2023-02-08T04:28:09.432Z,30.74
2023-02-08T04:30:37.799Z,30.81
2023-02-08T04:33:06.169Z,30.88
2023-02-08T04:35:34.891Z,30.97
2023-02-08T04:38:03.191Z,31.04
2023-02-08T04:40:32.454Z,31.10
2023-02-08T04:43:01.281Z,31.18
2023-02-08T04:45:32.985Z,31.25
2023-02-08T04:48:04.853Z,31.30
2023-02-08T04:50:33.185Z,31.36
2023-02-08T04:53:01.526Z,31.41
2023-02-08T04:55:29.892Z,31.49
2023-02-08T04:57:59.000Z,31.55
2023-02-08T05:00:28.273Z,31.61
2023-02-08T05:02:58.177Z,31.66
2023-02-08T05:05:28.228Z,31.70
2023-02-08T05:07:56.734Z,31.73
2023-02-08T05:10:25.090Z,31.78
2023-02-08T05:12:53.440Z,31.84
2023-02-08T05:15:21.996Z,31.86
2023-02-08T05:17:50.408Z,31.90
2023-02-08T05:20:19.000Z,31.90
2023-02-08T05:22:47.322Z,31.92
2023-02-08T05:25:15.847Z,31.96
2023-02-08T05:27:44.151Z,32.01
2023-02-08T05:30:12.865Z,32.06
2023-02-08T05:32:41.259Z,32.08
2023-02-08T05:35:09.921Z,32.12
2023-02-08T05:37:38.246Z,32.13
2023-02-08T05:40:06.962Z,32.09
2023-02-08T05:42:35.300Z,32.12
2023-02-08T05:45:03.762Z,32.10
2023-02-08T05:47:32.078Z,32.17
2023-02-08T05:50:00.364Z,32.20
2023-02-08T05:52:28.693Z,32.20
2023-02-08T05:54:56.989Z,32.18
2023-02-08T05:57:25.276Z,32.12
2023-02-08T05:59:53.616Z,32.13
2023-02-08T06:02:21.929Z,32.17
2023-02-08T06:04:50.325Z,32.24
2023-02-08T06:07:18.758Z,32.30
2023-02-08T06:09:48.524Z,32.39
2023-02-08T06:12:17.027Z,32.48
2023-02-08T06:14:45.908Z,32.56
2023-02-08T06:17:14.298Z,32.66
2023-02-08T06:19:42.598Z,32.67
2023-02-08T06:22:10.962Z,32.71
2023-02-08T06:24:39.325Z,32.75
2023-02-08T06:27:07.778Z,32.74
2023-02-08T06:29:36.154Z,32.75
2023-02-08T06:32:04.679Z,32.76
2023-02-08T06:34:33.067Z,32.79
2023-02-08T06:37:03.150Z,32.82
2023-02-08T06:39:31.510Z,32.83
2023-02-08T06:41:59.831Z,32.87
2023-02-08T06:44:28.296Z,32.89
2023-02-08T06:46:56.759Z,32.92
2023-02-08T06:49:25.046Z,32.95
2023-02-08T06:51:53.382Z,32.98
2023-02-08T06:54:21.675Z,32.99
2023-02-08T06:56:50.017Z,33.03
2023-02-08T06:59:18.478Z,33.04
2023-02-08T07:01:46.778Z,33.01
2023-02-08T07:04:15.779Z,32.97
2023-02-08T07:06:44.069Z,32.92
2023-02-08T07:09:12.391Z,32.88
2023-02-08T07:11:41.495Z,32.87
2023-02-08T07:14:14.148Z,32.86
2023-02-08T07:16:43.190Z,32.86
2023-02-08T07:19:11.664Z,32.85
2023-02-08T07:21:41.557Z,32.84
2023-02-08T07:24:09.884Z,32.83
2023-02-08T07:26:38.164Z,32.82
2023-02-08T07:29:06.709Z,32.82
2023-02-08T07:31:35.103Z,32.81
2023-02-08T07:34:03.511Z,32.79
2023-02-08T07:36:31.977Z,32.80
2023-02-08T07:39:00.300Z,32.79
2023-02-08T07:41:28.657Z,32.80
2023-02-08T07:43:56.948Z,32.77
2023-02-08T07:46:28.044Z,32.74
2023-02-08T07:48:56.564Z,32.74
2023-02-08T07:51:25.199Z,32.73
2023-02-08T07:53:53.833Z,32.74
2023-02-08T07:56:22.125Z,32.71
2023-02-08T07:58:50.403Z,32.69
2023-02-08T08:01:22.623Z,32.68
2023-02-08T08:03:53.256Z,32.69
2023-02-08T08:06:23.042Z,32.67
2023-02-08T08:08:51.979Z,32.67
2023-02-08T08:11:22.537Z,32.66
2023-02-08T08:13:51.648Z,32.66
2023-02-08T08:16:20.551Z,32.66
2023-02-08T08:18:50.164Z,32.65
2023-02-08T08:21:19.021Z,32.59
2023-02-08T08:23:47.438Z,32.56
2023-02-08T08:26:19.178Z,32.53
2023-02-08T08:28:48.396Z,32.51
2023-02-08T08:31:23.187Z,32.50
2023-02-08T08:33:51.994Z,32.50
2023-02-08T08:36:20.521Z,32.49
2023-02-08T08:38:49.057Z,32.46
2023-02-08T08:41:18.996Z,32.45
2023-02-08T08:43:47.464Z,32.44
2023-02-08T08:46:17.500Z,32.41
2023-02-08T08:48:46.374Z,32.40
2023-02-08T08:51:15.233Z,32.37
2023-02-08T08:53:43.664Z,32.35
2023-02-08T08:56:12.248Z,32.31
2023-02-08T08:58:41.015Z,32.28
2023-02-08T09:01:09.330Z,32.26
2023-02-08T09:03:38.813Z,32.24
2023-02-08T09:06:07.466Z,32.24
2023-02-08T09:08:35.868Z,32.22
2023-02-08T09:11:12.549Z,32.19
2023-02-08T09:13:41.536Z,32.16
2023-02-08T09:16:13.619Z,32.14
2023-02-08T09:18:42.504Z,32.12
2023-02-08T09:21:16.933Z,32.08
2023-02-08T09:23:45.290Z,32.06
2023-02-08T09:26:15.577Z,32.03
2023-02-08T09:28:44.384Z,32.00
2023-02-08T09:31:19.574Z,31.96
2023-02-08T09:33:51.773Z,31.93
2023-02-08T09:36:22.311Z,31.90
2023-02-08T09:38:52.609Z,31.87
2023-02-08T09:41:39.199Z,31.84
2023-02-08T09:44:16.893Z,31.78
2023-02-08T09:47:13.594Z,31.74
2023-02-08T09:50:00.185Z,31.69
2023-02-08T09:52:59.359Z,31.65
2023-02-08T09:55:39.602Z,31.60
2023-02-08T09:58:37.766Z,31.55
2023-02-08T10:01:13.394Z,31.50
2023-02-08T10:03:46.185Z,31.46
2023-02-08T10:06:20.028Z,31.41
2023-02-08T10:08:53.214Z,31.36
2023-02-08T10:12:05.400Z,31.30
2023-02-08T10:15:01.556Z,31.24
2023-02-08T10:17:37.902Z,31.17
2023-02-08T10:20:18.282Z,31.08
2023-02-08T10:23:23.495Z,31.00
2023-02-08T10:26:02.043Z,30.91
2023-02-08T10:28:57.157Z,30.84
2023-02-08T10:32:09.303Z,30.72
2023-02-08T10:34:58.664Z,30.66
2023-02-08T10:37:33.524Z,30.59
2023-02-08T10:40:24.679Z,30.53
2023-02-08T10:43:12.785Z,30.47
2023-02-08T10:46:11.524Z,30.42
2023-02-08T10:48:49.047Z,30.36
2023-02-08T10:51:22.515Z,30.32
2023-02-08T10:53:51.087Z,30.27
2023-02-08T10:56:31.611Z,30.22
2023-02-08T10:59:00.969Z,30.16
2023-02-08T11:01:29.814Z,30.09
2023-02-08T11:04:13.360Z,30.04
2023-02-08T11:06:43.528Z,30.00
2023-02-08T11:09:32.364Z,29.94
2023-02-08T11:12:03.548Z,29.88
2023-02-08T11:14:46.752Z,29.82
2023-02-08T11:17:32.565Z,29.75
2023-02-08T11:20:02.028Z,29.68
2023-02-08T11:22:32.534Z,29.65
2023-02-08T11:25:06.864Z,29.60
2023-02-08T11:27:45.842Z,29.56
2023-02-08T11:30:18.484Z,29.52
2023-02-08T11:32:48.932Z,29.49
2023-02-08T11:35:23.200Z,29.46
2023-02-08T11:37:58.160Z,29.43
2023-02-08T11:40:38.449Z,29.40
2023-02-08T11:43:07.052Z,29.39
2023-02-08T11:45:38.223Z,29.37
2023-02-08T11:48:20.068Z,29.35
2023-02-08T11:50:57.286Z,29.33
2023-02-08T11:53:34.565Z,29.30
2023-02-08T11:56:07.084Z,29.29
2023-02-08T11:58:35.885Z,29.27
2023-02-08T12:01:08.023Z,29.25
2023-02-08T12:03:41.825Z,29.20
2023-02-08T12:06:28.337Z,29.18
2023-02-08T12:09:22.310Z,29.14
2023-02-08T12:12:05.014Z,29.11
2023-02-08T12:14:35.954Z,29.07
2023-02-08T12:17:45.703Z,29.04
2023-02-08T12:20:33.973Z,28.99
2023-02-08T12:23:18.332Z,28.94
2023-02-08T12:26:10.982Z,28.89
2023-02-08T12:29:09.719Z,28.84
2023-02-08T12:31:40.784Z,28.79
2023-02-08T12:34:20.756Z,28.75
2023-02-08T12:37:31.820Z,28.71
2023-02-08T12:40:45.534Z,28.64
2023-02-08T12:43:37.812Z,28.59
2023-02-08T12:46:24.022Z,28.54
2023-02-08T12:48:55.149Z,28.49
2023-02-08T12:52:05.847Z,28.44
2023-02-08T12:54:59.150Z,28.38
2023-02-08T12:57:31.748Z,28.34
2023-02-08T13:00:09.352Z,28.28
2023-02-08T13:03:04.135Z,28.22
2023-02-08T13:05:39.203Z,28.16
2023-02-08T13:08:32.374Z,28.12
2023-02-08T13:11:30.423Z,28.08
2023-02-08T13:14:08.162Z,28.02
2023-02-08T13:16:51.585Z,27.99
2023-02-08T13:20:00.490Z,27.93
2023-02-08T13:22:35.677Z,27.88
2023-02-08T13:25:07.884Z,27.86
2023-02-08T13:27:37.113Z,27.82
2023-02-08T13:30:07.829Z,27.81
2023-02-08T13:32:46.625Z,27.77
2023-02-08T13:35:18.075Z,27.75
2023-02-08T13:37:54.527Z,27.73
2023-02-08T13:40:29.423Z,27.70
2023-02-08T13:43:36.007Z,27.68
2023-02-08T13:46:06.331Z,27.64
2023-02-08T13:49:00.896Z,27.63
2023-02-08T13:51:35.374Z,27.61
2023-02-08T13:54:03.695Z,27.58
2023-02-08T13:56:53.953Z,27.54
2023-02-08T13:59:29.989Z,27.51
2023-02-08T14:02:13.864Z,27.47
2023-02-08T14:04:44.910Z,27.45
2023-02-08T14:07:13.175Z,27.41
2023-02-08T14:10:04.650Z,27.38
2023-02-08T14:12:54.407Z,27.34
2023-02-08T14:15:25.739Z,27.32
2023-02-08T14:17:58.449Z,27.30
2023-02-08T14:20:42.432Z,27.27
2023-02-08T14:23:27.225Z,27.22
2023-02-08T14:25:57.932Z,27.18
2023-02-08T14:28:35.279Z,27.15
2023-02-08T14:31:11.419Z,27.11
2023-02-08T14:33:59.884Z,27.06
2023-02-08T14:36:32.899Z,27.04
2023-02-08T14:39:25.327Z,27.01
2023-02-08T14:41:58.218Z,26.98
2023-02-08T14:44:42.897Z,26.97
2023-02-08T14:47:26.227Z,26.94
2023-02-08T14:50:06.881Z,26.93
2023-02-08T14:52:35.834Z,26.88
2023-02-08T14:55:08.705Z,26.87
2023-02-08T14:57:38.889Z,26.83
2023-02-08T15:00:18.038Z,26.82
2023-02-08T15:02:47.802Z,26.79
2023-02-08T15:05:32.460Z,26.78
2023-02-08T15:08:03.021Z,26.77
2023-02-08T15:10:33.386Z,26.73
2023-02-08T15:13:07.426Z,26.70
2023-02-08T15:15:41.405Z,26.68
2023-02-08T15:18:20.752Z,26.64
2023-02-08T15:21:02.954Z,26.61
2023-02-08T15:23:31.896Z,26.58
2023-02-08T15:26:01.785Z,26.56
2023-02-08T15:28:32.481Z,26.52
2023-02-08T15:31:07.127Z,26.49
2023-02-08T15:33:39.174Z,26.46
2023-02-08T15:36:19.909Z,26.45
2023-02-08T15:38:49.354Z,26.43
2023-02-08T15:41:33.217Z,26.41
2023-02-08T15:44:24.643Z,26.39
2023-02-08T15:49:42.651Z,26.36
2023-02-08T15:52:18.620Z,26.34
2023-02-08T15:54:47.572Z,26.32
2023-02-08T15:57:49.561Z,26.31
2023-02-08T16:00:33.726Z,26.28
2023-02-08T16:03:10.380Z,26.25
2023-02-08T16:05:39.732Z,26.23
2023-02-08T16:08:08.762Z,26.21
2023-02-08T16:10:44.386Z,26.19
2023-02-08T16:13:33.009Z,26.17
2023-02-08T16:16:22.104Z,26.17
2023-02-08T16:19:18.986Z,26.13
2023-02-08T16:21:47.944Z,26.11
2023-02-08T16:24:16.204Z,26.10
2023-02-08T16:27:04.938Z,26.09
2023-02-08T16:29:41.118Z,26.07
2023-02-08T16:32:27.987Z,26.05
2023-02-08T16:34:57.226Z,26.02
2023-02-08T16:37:25.585Z,25.99
2023-02-08T16:39:59.637Z,25.94
2023-02-08T16:42:46.748Z,25.95
2023-02-08T16:45:21.656Z,25.93
2023-02-08T16:47:56.781Z,25.92
2023-02-08T16:50:27.954Z,25.90
2023-02-08T16:53:06.196Z,25.87
2023-02-08T16:55:38.015Z,25.85
2023-02-08T16:58:06.314Z,25.83
2023-02-08T17:00:36.565Z,25.82
2023-02-08T17:03:05.134Z,25.81
2023-02-08T17:05:38.536Z,25.80
2023-02-08T17:08:10.842Z,25.80
2023-02-08T17:10:39.878Z,25.79
2023-02-08T17:13:19.844Z,25.80
2023-02-08T17:15:51.438Z,25.79
2023-02-08T17:18:20.694Z,25.79
2023-02-08T17:20:49.451Z,25.76
2023-02-08T17:23:17.847Z,25.75
2023-02-08T17:25:46.580Z,25.74
2023-02-08T17:28:22.797Z,25.74
2023-02-08T17:30:51.695Z,25.73
2023-02-08T17:33:20.426Z,25.73
2023-02-08T17:35:51.457Z,25.75
2023-02-08T17:38:21.392Z,25.72
2023-02-08T17:40:49.915Z,25.72
2023-02-08T17:43:18.346Z,25.70
2023-02-08T17:45:47.081Z,25.69
2023-02-08T17:48:16.158Z,25.69
2023-02-08T17:50:48.786Z,25.66
2023-02-08T17:53:17.430Z,25.66
2023-02-08T17:55:47.465Z,25.66
2023-02-08T17:58:15.939Z,25.65
2023-02-08T18:00:44.291Z,25.67
2023-02-08T18:03:13.147Z,25.66
2023-02-08T18:05:41.487Z,25.67
2023-02-08T18:08:09.843Z,25.68
2023-02-08T18:10:38.245Z,25.69
2023-02-08T18:13:06.521Z,25.70
2023-02-08T18:15:35.603Z,25.72
2023-02-08T18:18:04.179Z,25.73
2023-02-08T18:20:32.560Z,25.74
2023-02-08T18:23:00.885Z,25.76
2023-02-08T18:25:29.308Z,25.77
2023-02-08T18:27:57.817Z,25.79
2023-02-08T18:30:27.265Z,25.80
2023-02-08T18:32:55.840Z,25.81
2023-02-08T18:35:24.793Z,25.82
2023-02-08T18:37:54.518Z,25.82
2023-02-08T18:40:22.955Z,25.82
2023-02-08T18:42:51.520Z,25.84
2023-02-08T18:45:20.130Z,25.84
2023-02-08T18:47:48.512Z,25.84
2023-02-08T18:50:16.931Z,25.83
2023-02-08T18:52:45.286Z,25.77
2023-02-08T18:55:13.671Z,25.74
2023-02-08T18:57:42.041Z,25.69
2023-02-08T19:00:11.080Z,25.64
2023-02-08T19:02:39.720Z,25.61
2023-02-08T19:05:11.007Z,25.58
2023-02-08T19:07:41.036Z,25.59
2023-02-08T19:10:09.630Z,25.61
2023-02-08T19:12:38.359Z,25.62
2023-02-08T19:15:07.100Z,25.65
2023-02-08T19:17:35.462Z,25.69
2023-02-08T19:20:04.032Z,25.70
2023-02-08T19:22:32.408Z,25.72
2023-02-08T19:25:00.818Z,25.73
2023-02-08T19:27:30.429Z,25.76
2023-02-08T19:29:58.791Z,25.77
2023-02-08T19:32:27.163Z,25.78
2023-02-08T19:34:55.520Z,25.76
2023-02-08T19:37:23.860Z,25.76
2023-02-08T19:39:52.205Z,25.73
2023-02-08T19:42:20.541Z,25.72
2023-02-08T19:44:48.913Z,25.71
2023-02-08T19:47:17.356Z,25.71
2023-02-08T19:49:45.702Z,25.71
2023-02-08T19:52:14.206Z,25.71
2023-02-08T19:54:42.544Z,25.71
2023-02-08T19:57:12.778Z,25.71
2023-02-08T19:59:41.094Z,25.72
2023-02-08T20:02:12.595Z,25.72
2023-02-08T20:04:41.671Z,25.72
2023-02-08T20:07:10.286Z,25.72
2023-02-08T20:09:38.773Z,25.71
2023-02-08T20:12:07.433Z,25.71
2023-02-08T20:14:36.096Z,25.69
2023-02-08T20:17:04.860Z,25.68
2023-02-08T20:19:33.192Z,25.67
2023-02-08T20:22:01.540Z,25.68
2023-02-08T20:24:29.879Z,25.68
2023-02-08T20:26:58.323Z,25.67
2023-02-08T20:29:28.770Z,25.65
2023-02-08T20:31:58.364Z,25.64
2023-02-08T20:34:27.110Z,25.61
2023-02-08T20:37:06.810Z,25.58
2023-02-08T20:39:37.290Z,25.56
2023-02-08T20:42:06.722Z,25.53
2023-02-08T20:44:35.135Z,25.51
2023-02-08T20:47:03.501Z,25.50
2023-02-08T20:49:33.097Z,25.48
2023-02-08T20:52:01.542Z,25.46
2023-02-08T20:54:30.015Z,25.44
2023-02-08T20:56:58.811Z,25.43
2023-02-08T20:59:27.254Z,25.41
2023-02-08T21:01:55.996Z,25.38
2023-02-08T21:04:24.448Z,25.37
2023-02-08T21:06:54.683Z,25.35
2023-02-08T21:09:26.187Z,25.34
2023-02-08T21:11:54.932Z,25.33
2023-02-08T21:14:24.326Z,25.32
2023-02-08T21:16:57.097Z,25.30
2023-02-08T21:19:27.581Z,25.29
2023-02-08T21:21:58.897Z,25.27
2023-02-08T21:24:28.284Z,25.24
2023-02-08T21:26:58.109Z,25.22
2023-02-08T21:29:27.014Z,25.18
2023-02-08T21:31:57.226Z,25.17
2023-02-08T21:34:25.642Z,25.15
2023-02-08T21:36:54.026Z,25.14
2023-02-08T21:39:24.135Z,25.11
2023-02-08T21:41:54.140Z,25.10
2023-02-08T21:44:22.840Z,25.10
2023-02-08T21:46:51.186Z,25.08
2023-02-08T21:49:37.610Z,25.07
2023-02-08T21:52:24.388Z,25.05
2023-02-08T21:54:54.451Z,25.02
2023-02-08T21:57:26.711Z,24.98
2023-02-08T21:59:59.964Z,24.96
2023-02-08T22:02:32.114Z,24.94
2023-02-08T22:05:02.313Z,24.91
2023-02-08T22:07:40.735Z,24.90
2023-02-08T22:10:11.069Z,24.89
2023-02-08T22:12:42.066Z,24.86
2023-02-08T22:15:13.166Z,24.84
2023-02-08T22:17:41.598Z,24.84
2023-02-08T22:20:10.881Z,24.82
2023-02-08T22:22:39.341Z,24.81
2023-02-08T22:25:08.379Z,24.80
2023-02-08T22:27:36.833Z,24.81
2023-02-08T22:30:05.485Z,24.79
2023-02-08T22:32:34.165Z,24.77
2023-02-08T22:35:02.454Z,24.76
2023-02-08T22:37:30.789Z,24.75
2023-02-08T22:39:59.150Z,24.74
2023-02-08T22:42:28.771Z,24.74
2023-02-08T22:44:57.285Z,24.71
2023-02-08T22:47:25.755Z,24.70
2023-02-08T22:49:57.116Z,24.70
2023-02-08T22:52:26.757Z,24.68
2023-02-08T22:54:56.962Z,24.68
2023-02-08T22:57:25.345Z,24.63
2023-02-08T22:59:53.712Z,24.65
2023-02-08T23:02:22.053Z,24.64
2023-02-08T23:04:50.379Z,24.63
2023-02-08T23:07:19.299Z,24.61
2023-02-08T23:09:48.143Z,24.60
2023-02-08T23:12:16.685Z,24.59
2023-02-08T23:14:45.388Z,24.57
2023-02-08T23:17:13.684Z,24.55
2023-02-08T23:19:42.732Z,24.54
2023-02-08T23:22:11.071Z,24.53
2023-02-08T23:24:39.464Z,24.52
2023-02-08T23:27:07.756Z,24.52
2023-02-08T23:29:36.029Z,24.52
2023-02-08T23:32:04.429Z,24.51
2023-02-08T23:34:32.728Z,24.51
2023-02-08T23:37:01.097Z,24.50
2023-02-08T23:39:29.386Z,24.50
2023-02-08T23:41:57.792Z,24.50
2023-02-08T23:44:27.468Z,24.48
2023-02-08T23:46:55.867Z,24.49
2023-02-08T23:49:24.441Z,24.47
2023-02-08T23:51:54.618Z,24.48
2023-02-08T23:54:22.919Z,24.47
2023-02-08T23:56:52.890Z,24.48
2023-02-08T23:59:21.191Z,24.49
